Friday, October 19, 2018, 5:55 PM EDT
Back to Local

K40B, Clayton Lake

Location: Ashland, ME, United States Lat: 46.617
Local Time: 5:55 PM EDT (21:55 GMT) Lon: -69.533
Time Zone: US/Eastern Elev: 1030 ft

Show me the last for .
Show Decoded

2018-10-19 17:16 METAR K40B 192116Z AUTO VRB04KT 06/00 A2977 RMK AO1 SLP098 T00641002 56029 60000
                 =
2018-10-19 16:16 METAR K40B 192016Z AUTO VRB05G15KT 06/00 A2978 RMK AO1 SLP105 T00631005 57034
                 P0000 =
2018-10-19 15:16 METAR K40B 191916Z AUTO VRB06KT 04/M01 A2982 RMK AO1 SLP121 T00361014 57032 =
2018-10-19 14:16 METAR K40B 191816Z AUTO VRB04G11KT 02/M02 A2985 RMK AO1 SLP132 T00191020 10019
                 21028 57032 60001 =
2018-10-19 13:16 METAR K40B 191716Z AUTO 17008KT 01/M02 A2989 RMK AO1 SLP144 T00141016 58029 =
2018-10-19 12:16 METAR K40B 191616Z AUTO VRB04KT 01/M02 A2992 RMK AO1 SLP156 T00081020 57027
                 P0001 =
2018-10-19 11:16 METAR K40B 191516Z AUTO VRB03KT M01/M03 A2995 RMK AO1 SLP167 T10091031 58022 =
2018-10-19 10:16 METAR K40B 191416Z AUTO VRB04KT M02/M04 A2998 RMK AO1 SLP176 T10171037 58014 =
2018-10-19 09:16 METAR K40B 191316Z AUTO 00000KT M02/M04 A3000 RMK AO1 SLP185 T10221042 58008 =
2018-10-19 08:16 METAR K40B 191216Z AUTO 00000KT M03/M04 A3002 RMK AO1 SLP191 T10281045 11027
                 21045 57003 P0001 60002 70002 =
2018-10-19 07:16 METAR K40B 191116Z AUTO 00000KT M03/M05 A3002 RMK AO1 SLP191 T10321050 58004
                 P0001 =
2018-10-19 06:16 METAR K40B 191016Z AUTO VRB02KT M03/M06 A3003 RMK AO1 SLP194 T10301055 57003 =
2018-10-19 05:16 METAR K40B 190916Z AUTO 00000KT M03/M07 A3003 RMK AO1 SLP194 T10301074 57005
                 60000 =
2018-10-19 04:16 METAR K40B 190816Z AUTO 00000KT M03/M08 A3003 RMK AO1 SLP195 T10321077 57007
                 P0000 =
2018-10-19 03:16 METAR K40B 190716Z AUTO 00000KT M04/M07 A3004 RMK AO1 SLP196 T10411073 57005 =
2018-10-19 02:16 METAR K40B 190616Z AUTO 00000KT M04/M08 A3005 RMK AO1 SLP198 T10431083 11017
                 21047 57005 =
2018-10-19 01:16 METAR K40B 190516Z AUTO 00000KT M04/M08 A3005 RMK AO1 SLP200 T10441080 400201044
                 57002 =
2018-10-19 00:16 METAR K40B 190416Z AUTO 00000KT M04/M08 A3005 RMK AO1 SLP199 T10421081 57002 =
2018-10-18 23:16 METAR K40B 190316Z AUTO 00000KT M04/M09 A3006 RMK AO1 SLP202 T10361093 51003 =
2018-10-18 22:16 METAR K40B 190216Z AUTO 00000KT M04/M09 A3006 RMK AO1 SLP200 T10371091 51005 =
2018-10-18 21:16 METAR K40B 190116Z AUTO 00000KT M03/M09 A3006 RMK AO1 SLP201 T10271093 51014 =
2018-10-18 20:35 METAR K40B 190035Z AUTO VRB03G12KT M02/M09 A3005 RMK AO1 SLP198 T10181091 10018
                 21021 51020 =
2018-10-18 19:16 METAR K40B 182316Z AUTO VRB02KT M02/M10 A3005 RMK AO1 SLP195 T10171098 52025 =
2018-10-18 18:16 METAR K40B 182216Z AUTO 00000KT M02/M08 A3002 RMK AO1 SLP186 T10181081 52023 =

Support USWX by starting your Amazon purchase here.